Time;durP1;ratioP1;P1;durP2;ratioP2;P2;SDS_P1;SDS_P2;PMS_P1;PMS_P2;Temp;Humidity;BMP_temperature;BMP_pressure;BME280_temperature;BME280_humidity;BME280_pressure;Samples;Min_cycle;Max_cycle;Signal;HPM_P1;HPM_P2
2021/03/01 03:06:27;;;;;;;;;;;;;;;;;;;;;
2021/03/01 06:31:16;;;;;;;;;;;;;;;;;;;;;
2021/03/01 07:54:18;;;;;;;16.33;3.28;;;20.80;57.70;;;;;;6091287;23;20445;-76
2021/03/01 07:57:03;;;;;;;6.90;2.67;;;20.80;58.70;;;;;;6091031;23;20103;-83
2021/03/01 08:00:38;;;;;;;;;;;;;;;;;;;;;
2021/03/01 09:24:34;;;;;;;6.03;2.08;;;24.90;43.40;;;;;;6032880;23;20106;-77
2021/03/01 09:27:12;;;;;;;6.38;1.90;;;24.90;43.20;;;;;;6040944;23;20071;-81
2021/03/01 09:29:37;;;;;;;2.78;1.52;;;24.70;43.10;;;;;;6091820;23;20017;-82
2021/03/01 09:32:07;;;;;;;6.95;1.60;;;24.90;42.20;;;;;;6157365;23;20422;-83
2021/03/01 09:34:41;;;;;;;3.13;1.80;;;24.30;42.60;;;;;;6213719;23;20498;-81
2021/03/01 09:37:32;;;;;;;3.67;1.65;;;23.80;43.30;;;;;;6214060;23;20123;-86
2021/03/01 09:39:58;;;;;;;2.60;1.55;;;23.80;44.20;;;;;;6213971;23;20012;-78
2021/03/01 09:42:23;;;;;;;4.68;1.85;;;24.30;43.30;;;;;;6214233;23;19996;-86
2021/03/01 09:44:49;;;;;;;1.95;1.55;;;24.10;43.10;;;;;;6214008;23;20473;-90
2021/03/01 09:47:38;;;;;;;7.30;1.83;;;24.40;43.70;;;;;;6213856;23;20329;-88
2021/03/01 09:50:07;;;;;;;6.70;1.80;;;24.60;42.90;;;;;;6213314;23;20003;-81
2021/03/01 09:52:39;;;;;;;10.45;1.40;;;25.10;42.70;;;;;;6211579;23;20001;-77
2021/03/01 09:55:09;;;;;;;2.65;1.55;;;25.10;42.40;;;;;;6213499;23;20051;-89
2021/03/01 09:57:58;;;;;;;12.07;2.00;;;25.00;42.60;;;;;;6215536;23;20468;-74
2021/03/01 10:00:30;;;;;;;3.55;1.67;;;25.00;43.50;;;;;;6155617;23;20005;-75
2021/03/01 10:03:02;;;;;;;3.72;1.60;;;25.60;43.00;;;;;;6212351;23;20004;-82
2021/03/01 10:06:36;;;;;;;2.08;1.40;;;25.80;42.10;;;;;;6214295;23;20036;-81
2021/03/01 10:09:19;;;;;;;2.13;1.45;;;25.70;43.00;;;;;;6085956;23;20066;-84
2021/03/01 10:12:15;;;;;;;2.78;1.52;;;25.70;42.70;;;;;;6213025;23;20005;-80
2021/03/01 10:14:45;;;;;;;2.38;1.80;;;25.30;42.90;;;;;;6213641;23;20454;-84
2021/03/01 10:17:28;;;;;;;6.80;1.92;;;24.40;43.60;;;;;;6212555;23;20004;-77
2021/03/01 10:20:22;;;;;;;2.80;1.60;;;23.60;44.70;;;;;;6187622;23;20001;-86
2021/03/01 10:23:09;;;;;;;5.25;1.80;;;23.20;45.50;;;;;;6213757;23;20011;-83
2021/03/01 10:28:36;;;;;;;2.58;1.85;;;22.60;46.20;;;;;;6150705;23;20455;-87
2021/03/01 10:31:36;;;;;;;2.63;1.70;;;22.30;46.80;;;;;;6150966;23;20005;-79
2021/03/01 10:34:02;;;;;;;3.72;2.50;;;;;;;;;;6200483;23;20050;-88
2021/03/01 10:36:43;;;;;;;4.13;2.20;;;22.10;47.50;;;;;;6213639;23;20046;-87
2021/03/01 10:39:32;;;;;;;3.55;1.90;;;21.70;48.60;;;;;;6213973;23;20052;-90
2021/03/01 10:42:13;;;;;;;3.47;2.00;;;21.40;49.40;;;;;;6213396;23;20000;-86
2021/03/01 10:44:48;;;;;;;4.32;2.08;;;21.30;50.70;;;;;;6214331;23;19997;-87
2021/03/01 10:47:24;;;;;;;4.15;2.03;;;20.90;50.30;;;;;;6213737;23;20005;-79
2021/03/01 10:50:22;;;;;;;3.65;1.92;;;20.40;51.20;;;;;;6214200;23;20114;-84
2021/03/01 10:52:54;;;;;;;4.13;2.35;;;20.20;51.90;;;;;;6120837;23;20002;-83
2021/03/01 11:05:49;;;;;;;2.90;1.88;;;19.70;52.80;;;;;;6122456;23;20096;-78
2021/03/01 11:50:41;;;;;;;2.75;1.75;;;19.20;54.90;;;;;;5843856;24;20085;-77
2021/03/01 11:53:44;;;;;;;3.17;1.88;;;19.20;54.90;;;;;;5931703;23;20026;-92
2021/03/01 12:23:25;;;;;;;7.57;2.35;;;18.90;54.80;;;;;;5950943;24;20537;-79
2021/03/01 12:59:55;;;;;;;4.00;1.90;;;18.10;55.90;;;;;;6212952;23;20011;-81
2021/03/01 13:09:54;;;;;;;4.80;1.77;;;18.10;56.20;;;;;;6212444;23;20510;-88
2021/03/01 14:07:28;;;;;;;;;;;;;;;;;;;;;
2021/03/01 14:20:47;;;;;;;4.78;2.25;;;18.20;58.70;;;;;;6062159;23;20024;-81
2021/03/01 14:59:00;;;;;;;;;;;;;;;;;;;;;
2021/03/01 15:02:26;;;;;;;;;;;;;;;;;;;;;
2021/03/01 15:05:35;;;;;;;8.52;3.63;;;17.70;61.30;;;;;;5950404;24;20086;-83
2021/03/01 15:19:14;;;;;;;10.85;6.38;;;17.60;62.00;;;;;;5979799;24;20107;-84
2021/03/01 15:22:23;;;;;;;13.57;6.35;;;17.60;62.20;;;;;;5977318;24;20016;-78
2021/03/01 15:45:57;;;;;;;12.80;6.47;;;17.50;63.00;;;;;;5977432;24;20087;-77
2021/03/01 15:49:05;;;;;;;;;;;;;;;;;;;;;
2021/03/01 15:55:44;;;;;;;5.68;3.97;;;17.40;62.60;;;;;;5979398;23;20023;-82
2021/03/01 15:59:19;;;;;;;;;;;;;;;;;;;;;
2021/03/01 16:02:08;;;;;;;5.47;3.70;;;17.30;62.70;;;;;;6180965;23;20091;-80
2021/03/01 16:04:50;;;;;;;;;;;;;;;;;;;;;
2021/03/01 16:11:36;;;;;;;14.73;4.70;;;17.20;63.10;;;;;;6163613;23;20478;-80
2021/03/01 16:14:28;;;;;;;6.30;4.15;;;17.20;63.70;;;;;;6182004;23;20013;-86
2021/03/01 16:17:49;;;;;;;;;;;;;;;;;;;;;
2021/03/01 17:26:37;;;;;;;11.68;5.30;;;15.40;70.80;;;;;;6006372;23;20054;-82
2021/03/01 18:17:16;;;;;;;;;;;;;;;;;;;;;
2021/03/01 18:28:38;;;;;;;;;;;;;;;;;;;;;
2021/03/01 18:44:40;;;;;;;11.20;5.85;;;14.20;75.20;;;;;;6005740;23;20015;-81
2021/03/01 22:24:03;;;;;;;;;;;;;;;;;;;;;
2021/03/01 22:42:40;;;;;;;23.00;13.55;;;11.60;88.10;;;;;;6039875;23;20381;-72
2021/03/01 22:45:06;;;;;;;21.88;13.20;;;11.70;88.20;;;;;;6184842;23;20005;-72
2021/03/01 22:47:34;;;;;;;21.40;13.32;;;11.60;88.20;;;;;;6184914;23;20056;-72
2021/03/01 22:50:02;;;;;;;27.50;14.02;;;11.60;88.50;;;;;;6185162;23;20008;-72
2021/03/01 22:52:30;;;;;;;24.70;14.40;;;11.60;88.40;;;;;;6184824;23;20080;-72
2021/03/01 22:54:59;;;;;;;23.23;14.27;;;11.60;88.50;;;;;;6184851;23;20430;-71
2021/03/01 22:57:27;;;;;;;23.85;14.13;;;11.50;88.20;;;;;;6184115;23;20106;-71
2021/03/01 22:59:53;;;;;;;21.08;12.70;;;11.50;88.40;;;;;;6184435;23;20053;-71
2021/03/01 23:02:19;;;;;;;20.05;12.90;;;11.50;88.80;;;;;;6184049;23;20072;-72
2021/03/01 23:04:44;;;;;;;24.67;13.40;;;11.40;88.90;;;;;;6184626;23;20009;-73
2021/03/01 23:07:11;;;;;;;25.13;13.23;;;11.40;89.00;;;;;;6184125;23;20020;-71
2021/03/01 23:09:37;;;;;;;20.67;13.55;;;11.40;88.70;;;;;;6184260;23;20001;-71
2021/03/01 23:12:03;;;;;;;22.10;13.52;;;11.30;89.20;;;;;;6184752;23;20051;-71
2021/03/01 23:14:29;;;;;;;27.27;14.15;;;11.30;89.10;;;;;;6184263;23;20080;-71
2021/03/01 23:16:56;;;;;;;21.90;12.57;;;11.20;89.60;;;;;;6157903;23;20029;-71
2021/03/01 23:19:24;;;;;;;24.05;12.93;;;11.20;89.40;;;;;;6184600;23;20012;-71
2021/03/01 23:21:50;;;;;;;28.23;14.43;;;11.20;89.50;;;;;;6184280;23;20009;-71
2021/03/01 23:24:16;;;;;;;22.63;13.68;;;11.20;89.70;;;;;;6184330;23;20080;-71
2021/03/01 23:26:42;;;;;;;27.48;12.93;;;11.10;89.90;;;;;;6183866;23;20040;-71
2021/03/01 23:29:08;;;;;;;28.90;13.75;;;11.10;89.90;;;;;;6183760;23;20072;-71
2021/03/01 23:31:35;;;;;;;23.52;14.60;;;11.10;89.90;;;;;;6183829;23;20001;-72
2021/03/01 23:34:01;;;;;;;18.30;12.13;;;11.10;89.90;;;;;;6184181;23;20005;-71
2021/03/01 23:36:34;;;;;;;22.88;13.18;;;11.10;90.20;;;;;;6184271;23;20004;-71
2021/03/01 23:39:01;;;;;;;21.48;12.98;;;11.00;90.10;;;;;;6183575;23;20001;-72
2021/03/01 23:41:28;;;;;;;25.10;13.15;;;11.10;90.10;;;;;;6184195;23;20008;-71
2021/03/01 23:43:55;;;;;;;22.10;13.82;;;11.10;90.00;;;;;;6199573;23;20020;-71
2021/03/01 23:46:24;;;;;;;24.38;12.98;;;11.10;90.10;;;;;;6214078;23;20028;-72
2021/03/01 23:48:51;;;;;;;28.45;13.20;;;11.10;90.00;;;;;;6213607;23;20019;-71
2021/03/01 23:51:25;;;;;;;18.17;11.93;;;11.10;89.80;;;;;;6214153;23;20055;-71
2021/03/01 23:53:52;;;;;;;32.53;12.95;;;11.10;89.70;;;;;;6213508;23;20001;-72
2021/03/01 23:56:18;;;;;;;21.25;11.57;;;11.10;89.80;;;;;;6213350;23;20016;-71
2021/03/01 23:58:47;;;;;;;19.17;11.60;;;11.10;89.50;;;;;;6213961;23;20012;-72
